sensor_id;sensor_type;location;lat;lon;timestamp;P1;durP1;ratioP1;P2;durP2;ratioP2
751;SDS011;360;48.764;9.164;2022-09-03T00:02:04;3.63;;;1.50;;
751;SDS011;360;48.764;9.164;2022-09-03T00:04:36;2.50;;;1.57;;
751;SDS011;360;48.764;9.164;2022-09-03T00:07:10;1.60;;;1.50;;
751;SDS011;360;48.764;9.164;2022-09-03T00:09:42;1.73;;;1.53;;
751;SDS011;360;48.764;9.164;2022-09-03T00:12:12;2.27;;;1.70;;
751;SDS011;360;48.764;9.164;2022-09-03T00:14:42;1.73;;;1.20;;
751;SDS011;360;48.764;9.164;2022-09-03T00:17:12;2.33;;;1.50;;
751;SDS011;360;48.764;9.164;2022-09-03T00:19:42;2.70;;;1.70;;
751;SDS011;360;48.764;9.164;2022-09-03T00:22:14;1.53;;;1.43;;
751;SDS011;360;48.764;9.164;2022-09-03T00:24:42;2.30;;;1.33;;
751;SDS011;360;48.764;9.164;2022-09-03T00:27:10;1.80;;;1.67;;
751;SDS011;360;48.764;9.164;2022-09-03T00:29:40;2.53;;;1.37;;
751;SDS011;360;48.764;9.164;2022-09-03T00:32:12;1.67;;;1.57;;
751;SDS011;360;48.764;9.164;2022-09-03T00:34:41;1.63;;;1.20;;
751;SDS011;360;48.764;9.164;2022-09-03T00:37:09;1.83;;;1.53;;
751;SDS011;360;48.764;9.164;2022-09-03T00:39:37;1.87;;;1.77;;
751;SDS011;360;48.764;9.164;2022-09-03T00:42:08;3.00;;;1.70;;
751;SDS011;360;48.764;9.164;2022-09-03T00:47:34;1.43;;;1.33;;
751;SDS011;360;48.764;9.164;2022-09-03T00:50:06;1.30;;;1.10;;
751;SDS011;360;48.764;9.164;2022-09-03T00:52:39;1.60;;;1.50;;
751;SDS011;360;48.764;9.164;2022-09-03T00:55:10;1.83;;;1.63;;
751;SDS011;360;48.764;9.164;2022-09-03T00:57:45;2.23;;;1.23;;
751;SDS011;360;48.764;9.164;2022-09-03T01:00:15;2.83;;;1.50;;
751;SDS011;360;48.764;9.164;2022-09-03T01:02:50;2.00;;;1.57;;
751;SDS011;360;48.764;9.164;2022-09-03T01:05:26;4.50;;;1.57;;
751;SDS011;360;48.764;9.164;2022-09-03T01:07:57;1.73;;;1.53;;
751;SDS011;360;48.764;9.164;2022-09-03T01:10:32;1.63;;;1.30;;
751;SDS011;360;48.764;9.164;2022-09-03T01:13:04;3.03;;;1.97;;
751;SDS011;360;48.764;9.164;2022-09-03T01:15:34;2.53;;;1.60;;
751;SDS011;360;48.764;9.164;2022-09-03T01:18:12;1.40;;;1.30;;
751;SDS011;360;48.764;9.164;2022-09-03T01:20:47;1.73;;;1.47;;
751;SDS011;360;48.764;9.164;2022-09-03T01:23:23;1.80;;;1.50;;
751;SDS011;360;48.764;9.164;2022-09-03T01:25:57;2.13;;;1.43;;
751;SDS011;360;48.764;9.164;2022-09-03T01:28:34;1.47;;;1.37;;
751;SDS011;360;48.764;9.164;2022-09-03T01:31:08;1.50;;;1.40;;
751;SDS011;360;48.764;9.164;2022-09-03T01:33:38;1.27;;;1.13;;
751;SDS011;360;48.764;9.164;2022-09-03T01:36:08;1.73;;;1.40;;
751;SDS011;360;48.764;9.164;2022-09-03T01:38:38;2.23;;;1.40;;
751;SDS011;360;48.764;9.164;2022-09-03T01:41:10;1.40;;;1.30;;
751;SDS011;360;48.764;9.164;2022-09-03T01:44:13;1.63;;;1.30;;
751;SDS011;360;48.764;9.164;2022-09-03T01:46:43;1.60;;;1.50;;
751;SDS011;360;48.764;9.164;2022-09-03T01:49:14;1.37;;;1.00;;
751;SDS011;360;48.764;9.164;2022-09-03T01:51:47;1.53;;;1.40;;
751;SDS011;360;48.764;9.164;2022-09-03T01:54:23;1.90;;;1.80;;
751;SDS011;360;48.764;9.164;2022-09-03T01:57:12;1.50;;;1.40;;
751;SDS011;360;48.764;9.164;2022-09-03T01:59:42;1.17;;;1.07;;
751;SDS011;360;48.764;9.164;2022-09-03T02:02:14;1.40;;;1.30;;
751;SDS011;360;48.764;9.164;2022-09-03T02:04:53;2.00;;;1.40;;
751;SDS011;360;48.764;9.164;2022-09-03T02:07:21;1.80;;;1.17;;
751;SDS011;360;48.764;9.164;2022-09-03T02:09:49;2.07;;;1.30;;
751;SDS011;360;48.764;9.164;2022-09-03T02:12:16;1.87;;;1.23;;
751;SDS011;360;48.764;9.164;2022-09-03T02:14:47;3.10;;;1.47;;
751;SDS011;360;48.764;9.164;2022-09-03T02:17:14;1.50;;;1.37;;
751;SDS011;360;48.764;9.164;2022-09-03T02:19:41;1.67;;;1.57;;
751;SDS011;360;48.764;9.164;2022-09-03T02:22:09;1.53;;;1.43;;
751;SDS011;360;48.764;9.164;2022-09-03T02:24:36;4.30;;;1.43;;
751;SDS011;360;48.764;9.164;2022-09-03T02:27:04;1.83;;;1.33;;
751;SDS011;360;48.764;9.164;2022-09-03T02:29:31;2.40;;;1.40;;
751;SDS011;360;48.764;9.164;2022-09-03T02:32:00;2.33;;;1.50;;
751;SDS011;360;48.764;9.164;2022-09-03T02:34:27;1.60;;;1.40;;
751;SDS011;360;48.764;9.164;2022-09-03T02:36:55;1.17;;;1.03;;
751;SDS011;360;48.764;9.164;2022-09-03T02:39:22;1.60;;;1.10;;
751;SDS011;360;48.764;9.164;2022-09-03T02:41:52;2.23;;;1.37;;
751;SDS011;360;48.764;9.164;2022-09-03T02:44:21;2.70;;;1.30;;
751;SDS011;360;48.764;9.164;2022-09-03T02:46:52;1.50;;;1.33;;
751;SDS011;360;48.764;9.164;2022-09-03T02:49:21;1.63;;;1.53;;
751;SDS011;360;48.764;9.164;2022-09-03T02:51:48;1.30;;;1.20;;
751;SDS011;360;48.764;9.164;2022-09-03T02:54:15;3.13;;;1.50;;
751;SDS011;360;48.764;9.164;2022-09-03T02:56:42;1.10;;;1.00;;
751;SDS011;360;48.764;9.164;2022-09-03T02:59:12;1.57;;;1.47;;
751;SDS011;360;48.764;9.164;2022-09-03T03:01:39;1.83;;;1.73;;
751;SDS011;360;48.764;9.164;2022-09-03T03:04:06;1.10;;;1.00;;
751;SDS011;360;48.764;9.164;2022-09-03T03:06:35;5.70;;;1.80;;
751;SDS011;360;48.764;9.164;2022-09-03T03:09:02;1.90;;;1.70;;
751;SDS011;360;48.764;9.164;2022-09-03T03:11:30;2.00;;;1.70;;
751;SDS011;360;48.764;9.164;2022-09-03T03:13:57;2.50;;;1.63;;
751;SDS011;360;48.764;9.164;2022-09-03T03:16:24;1.93;;;1.47;;
751;SDS011;360;48.764;9.164;2022-09-03T03:18:51;2.30;;;1.67;;
751;SDS011;360;48.764;9.164;2022-09-03T03:21:18;2.37;;;1.50;;
751;SDS011;360;48.764;9.164;2022-09-03T03:23:47;2.10;;;1.20;;
751;SDS011;360;48.764;9.164;2022-09-03T03:26:15;1.50;;;1.40;;
751;SDS011;360;48.764;9.164;2022-09-03T03:28:44;2.43;;;1.20;;
751;SDS011;360;48.764;9.164;2022-09-03T03:31:13;1.30;;;1.20;;
751;SDS011;360;48.764;9.164;2022-09-03T03:33:40;1.57;;;1.47;;
751;SDS011;360;48.764;9.164;2022-09-03T03:36:08;2.47;;;1.43;;
751;SDS011;360;48.764;9.164;2022-09-03T03:38:36;1.63;;;1.30;;
751;SDS011;360;48.764;9.164;2022-09-03T03:41:08;1.73;;;1.63;;
751;SDS011;360;48.764;9.164;2022-09-03T03:43:35;1.30;;;1.20;;
751;SDS011;360;48.764;9.164;2022-09-03T03:46:03;2.23;;;1.40;;
751;SDS011;360;48.764;9.164;2022-09-03T03:48:30;1.57;;;1.47;;
751;SDS011;360;48.764;9.164;2022-09-03T03:50:59;2.17;;;1.87;;
751;SDS011;360;48.764;9.164;2022-09-03T03:53:27;1.40;;;1.30;;
751;SDS011;360;48.764;9.164;2022-09-03T03:55:54;2.10;;;1.53;;
751;SDS011;360;48.764;9.164;2022-09-03T03:58:23;1.70;;;1.50;;
751;SDS011;360;48.764;9.164;2022-09-03T04:00:51;1.80;;;1.67;;
751;SDS011;360;48.764;9.164;2022-09-03T04:03:18;1.70;;;1.60;;
751;SDS011;360;48.764;9.164;2022-09-03T04:05:53;1.27;;;1.07;;
751;SDS011;360;48.764;9.164;2022-09-03T04:08:21;1.60;;;1.40;;
751;SDS011;360;48.764;9.164;2022-09-03T04:10:48;1.80;;;1.40;;
751;SDS011;360;48.764;9.164;2022-09-03T04:13:15;1.60;;;1.50;;
751;SDS011;360;48.764;9.164;2022-09-03T04:15:44;1.37;;;1.23;;
751;SDS011;360;48.764;9.164;2022-09-03T04:18:11;1.60;;;1.50;;
751;SDS011;360;48.764;9.164;2022-09-03T04:20:38;1.53;;;1.43;;
751;SDS011;360;48.764;9.164;2022-09-03T04:23:05;2.00;;;1.33;;
751;SDS011;360;48.764;9.164;2022-09-03T04:25:33;1.40;;;1.23;;
751;SDS011;360;48.764;9.164;2022-09-03T04:28:01;2.30;;;1.40;;
751;SDS011;360;48.764;9.164;2022-09-03T04:30:28;2.10;;;1.40;;
751;SDS011;360;48.764;9.164;2022-09-03T04:32:57;2.17;;;1.77;;
751;SDS011;360;48.764;9.164;2022-09-03T04:35:24;1.87;;;1.57;;
751;SDS011;360;48.764;9.164;2022-09-03T04:37:56;3.00;;;1.70;;
751;SDS011;360;48.764;9.164;2022-09-03T04:40:23;1.57;;;1.47;;
751;SDS011;360;48.764;9.164;2022-09-03T04:42:55;3.53;;;1.50;;
751;SDS011;360;48.764;9.164;2022-09-03T04:45:22;3.00;;;1.50;;
751;SDS011;360;48.764;9.164;2022-09-03T04:47:54;1.90;;;1.57;;
751;SDS011;360;48.764;9.164;2022-09-03T04:50:23;1.70;;;1.57;;
751;SDS011;360;48.764;9.164;2022-09-03T04:52:50;3.00;;;1.70;;
751;SDS011;360;48.764;9.164;2022-09-03T04:55:20;2.50;;;1.83;;
751;SDS011;360;48.764;9.164;2022-09-03T04:57:48;1.60;;;1.40;;
751;SDS011;360;48.764;9.164;2022-09-03T05:00:15;1.47;;;1.33;;
751;SDS011;360;48.764;9.164;2022-09-03T05:02:43;2.10;;;1.50;;
751;SDS011;360;48.764;9.164;2022-09-03T05:05:11;1.97;;;1.47;;
751;SDS011;360;48.764;9.164;2022-09-03T05:07:39;1.60;;;1.50;;
751;SDS011;360;48.764;9.164;2022-09-03T05:10:08;2.13;;;1.73;;
751;SDS011;360;48.764;9.164;2022-09-03T05:12:37;1.87;;;1.27;;
751;SDS011;360;48.764;9.164;2022-09-03T05:15:04;2.27;;;1.43;;
751;SDS011;360;48.764;9.164;2022-09-03T05:17:32;1.70;;;1.60;;
751;SDS011;360;48.764;9.164;2022-09-03T05:19:59;1.80;;;1.57;;
751;SDS011;360;48.764;9.164;2022-09-03T05:22:26;1.70;;;1.60;;
751;SDS011;360;48.764;9.164;2022-09-03T05:24:54;1.53;;;1.27;;
751;SDS011;360;48.764;9.164;2022-09-03T05:27:22;1.93;;;1.50;;
751;SDS011;360;48.764;9.164;2022-09-03T05:29:49;1.60;;;1.50;;
751;SDS011;360;48.764;9.164;2022-09-03T05:32:16;2.30;;;1.80;;
751;SDS011;360;48.764;9.164;2022-09-03T05:34:43;2.40;;;1.50;;
751;SDS011;360;48.764;9.164;2022-09-03T05:37:10;4.73;;;1.70;;
751;SDS011;360;48.764;9.164;2022-09-03T05:39:37;1.60;;;1.50;;
751;SDS011;360;48.764;9.164;2022-09-03T05:42:06;1.80;;;1.60;;
751;SDS011;360;48.764;9.164;2022-09-03T05:44:33;2.00;;;1.80;;
751;SDS011;360;48.764;9.164;2022-09-03T05:47:01;1.70;;;1.60;;
751;SDS011;360;48.764;9.164;2022-09-03T05:49:28;2.70;;;2.30;;
751;SDS011;360;48.764;9.164;2022-09-03T05:51:56;2.93;;;1.93;;
751;SDS011;360;48.764;9.164;2022-09-03T05:54:23;2.17;;;1.70;;
751;SDS011;360;48.764;9.164;2022-09-03T05:56:50;2.33;;;2.13;;
751;SDS011;360;48.764;9.164;2022-09-03T05:59:19;3.40;;;1.90;;
751;SDS011;360;48.764;9.164;2022-09-03T06:01:46;2.77;;;1.63;;
751;SDS011;360;48.764;9.164;2022-09-03T06:04:14;5.60;;;2.10;;
751;SDS011;360;48.764;9.164;2022-09-03T06:06:42;1.60;;;1.50;;
751;SDS011;360;48.764;9.164;2022-09-03T06:09:10;1.77;;;1.43;;
751;SDS011;360;48.764;9.164;2022-09-03T06:11:38;2.60;;;1.87;;
751;SDS011;360;48.764;9.164;2022-09-03T06:14:07;2.63;;;1.87;;
751;SDS011;360;48.764;9.164;2022-09-03T06:16:37;1.87;;;1.37;;
751;SDS011;360;48.764;9.164;2022-09-03T06:19:05;2.07;;;1.90;;
751;SDS011;360;48.764;9.164;2022-09-03T06:21:33;3.20;;;2.03;;
751;SDS011;360;48.764;9.164;2022-09-03T06:24:01;2.23;;;1.70;;
751;SDS011;360;48.764;9.164;2022-09-03T06:26:28;3.13;;;2.10;;
751;SDS011;360;48.764;9.164;2022-09-03T06:28:56;2.03;;;1.60;;
751;SDS011;360;48.764;9.164;2022-09-03T06:31:24;1.73;;;1.63;;
751;SDS011;360;48.764;9.164;2022-09-03T06:33:52;2.40;;;2.03;;
751;SDS011;360;48.764;9.164;2022-09-03T06:36:20;2.43;;;1.70;;
751;SDS011;360;48.764;9.164;2022-09-03T06:38:50;3.57;;;1.90;;
751;SDS011;360;48.764;9.164;2022-09-03T06:41:18;2.53;;;1.90;;
751;SDS011;360;48.764;9.164;2022-09-03T06:43:49;2.43;;;1.93;;
751;SDS011;360;48.764;9.164;2022-09-03T06:46:17;4.00;;;2.00;;
751;SDS011;360;48.764;9.164;2022-09-03T06:48:44;3.00;;;1.87;;
751;SDS011;360;48.764;9.164;2022-09-03T06:51:13;1.83;;;1.60;;
751;SDS011;360;48.764;9.164;2022-09-03T06:53:42;3.73;;;2.83;;
751;SDS011;360;48.764;9.164;2022-09-03T06:56:10;2.33;;;2.13;;
751;SDS011;360;48.764;9.164;2022-09-03T06:58:38;2.00;;;1.57;;
751;SDS011;360;48.764;9.164;2022-09-03T07:01:08;2.40;;;2.00;;
751;SDS011;360;48.764;9.164;2022-09-03T07:03:36;1.60;;;1.50;;
751;SDS011;360;48.764;9.164;2022-09-03T07:06:04;2.80;;;2.60;;
751;SDS011;360;48.764;9.164;2022-09-03T07:08:33;2.63;;;1.80;;
751;SDS011;360;48.764;9.164;2022-09-03T07:11:00;2.63;;;1.83;;
751;SDS011;360;48.764;9.164;2022-09-03T07:13:33;2.13;;;1.93;;
751;SDS011;360;48.764;9.164;2022-09-03T07:16:00;4.30;;;2.40;;
751;SDS011;360;48.764;9.164;2022-09-03T07:18:27;3.53;;;2.30;;
751;SDS011;360;48.764;9.164;2022-09-03T07:20:58;6.50;;;2.30;;
751;SDS011;360;48.764;9.164;2022-09-03T07:23:26;2.10;;;1.90;;
751;SDS011;360;48.764;9.164;2022-09-03T07:25:55;2.20;;;2.00;;
751;SDS011;360;48.764;9.164;2022-09-03T07:28:23;3.37;;;2.40;;
751;SDS011;360;48.764;9.164;2022-09-03T07:30:50;2.70;;;1.97;;
751;SDS011;360;48.764;9.164;2022-09-03T07:33:17;2.80;;;2.60;;
751;SDS011;360;48.764;9.164;2022-09-03T07:35:45;3.43;;;2.47;;
751;SDS011;360;48.764;9.164;2022-09-03T07:38:15;2.97;;;2.30;;
751;SDS011;360;48.764;9.164;2022-09-03T07:40:43;2.83;;;2.33;;
751;SDS011;360;48.764;9.164;2022-09-03T07:43:12;2.90;;;2.70;;
751;SDS011;360;48.764;9.164;2022-09-03T07:45:39;4.00;;;1.97;;
751;SDS011;360;48.764;9.164;2022-09-03T07:48:09;2.73;;;2.33;;
751;SDS011;360;48.764;9.164;2022-09-03T07:50:36;3.50;;;1.90;;
751;SDS011;360;48.764;9.164;2022-09-03T07:53:04;2.63;;;2.43;;
751;SDS011;360;48.764;9.164;2022-09-03T07:55:32;3.00;;;2.70;;
751;SDS011;360;48.764;9.164;2022-09-03T07:57:59;3.47;;;2.67;;
751;SDS011;360;48.764;9.164;2022-09-03T08:00:27;3.00;;;2.10;;
751;SDS011;360;48.764;9.164;2022-09-03T08:02:57;2.80;;;2.60;;
751;SDS011;360;48.764;9.164;2022-09-03T08:05:30;2.63;;;2.40;;
751;SDS011;360;48.764;9.164;2022-09-03T08:07:58;1.70;;;1.60;;
751;SDS011;360;48.764;9.164;2022-09-03T08:10:25;2.40;;;2.20;;
751;SDS011;360;48.764;9.164;2022-09-03T08:12:55;3.20;;;2.53;;
751;SDS011;360;48.764;9.164;2022-09-03T08:15:22;3.90;;;2.30;;
751;SDS011;360;48.764;9.164;2022-09-03T08:17:51;2.53;;;2.33;;
751;SDS011;360;48.764;9.164;2022-09-03T08:20:18;2.23;;;2.03;;
751;SDS011;360;48.764;9.164;2022-09-03T08:22:45;4.53;;;2.13;;
751;SDS011;360;48.764;9.164;2022-09-03T08:25:12;2.10;;;1.90;;
751;SDS011;360;48.764;9.164;2022-09-03T08:27:39;2.27;;;1.90;;
751;SDS011;360;48.764;9.164;2022-09-03T08:30:06;2.90;;;2.17;;
751;SDS011;360;48.764;9.164;2022-09-03T08:32:35;2.93;;;2.20;;
751;SDS011;360;48.764;9.164;2022-09-03T08:35:05;2.20;;;2.00;;
751;SDS011;360;48.764;9.164;2022-09-03T08:37:33;2.20;;;2.00;;
751;SDS011;360;48.764;9.164;2022-09-03T08:40:00;1.93;;;1.73;;
751;SDS011;360;48.764;9.164;2022-09-03T08:42:37;2.90;;;2.57;;
751;SDS011;360;48.764;9.164;2022-09-03T08:45:11;2.63;;;2.07;;
751;SDS011;360;48.764;9.164;2022-09-03T08:47:41;2.07;;;1.87;;
751;SDS011;360;48.764;9.164;2022-09-03T08:50:12;1.97;;;1.87;;
751;SDS011;360;48.764;9.164;2022-09-03T08:52:43;2.77;;;2.17;;
751;SDS011;360;48.764;9.164;2022-09-03T08:55:19;2.47;;;1.90;;
751;SDS011;360;48.764;9.164;2022-09-03T08:57:48;2.20;;;2.03;;
751;SDS011;360;48.764;9.164;2022-09-03T09:00:17;2.03;;;1.83;;
751;SDS011;360;48.764;9.164;2022-09-03T09:02:51;2.27;;;2.07;;
751;SDS011;360;48.764;9.164;2022-09-03T09:05:21;2.20;;;2.00;;
751;SDS011;360;48.764;9.164;2022-09-03T09:07:50;2.20;;;2.00;;
751;SDS011;360;48.764;9.164;2022-09-03T09:10:21;2.77;;;2.40;;
751;SDS011;360;48.764;9.164;2022-09-03T09:12:52;2.30;;;2.10;;
751;SDS011;360;48.764;9.164;2022-09-03T09:15:25;3.03;;;2.83;;
751;SDS011;360;48.764;9.164;2022-09-03T09:18:06;2.20;;;2.00;;
751;SDS011;360;48.764;9.164;2022-09-03T09:20:40;1.87;;;1.77;;
751;SDS011;360;48.764;9.164;2022-09-03T09:23:09;1.97;;;1.87;;
751;SDS011;360;48.764;9.164;2022-09-03T09:25:40;2.20;;;2.00;;
751;SDS011;360;48.764;9.164;2022-09-03T09:28:12;2.30;;;2.10;;
751;SDS011;360;48.764;9.164;2022-09-03T09:30:42;2.70;;;2.47;;
751;SDS011;360;48.764;9.164;2022-09-03T09:33:11;2.40;;;2.20;;
751;SDS011;360;48.764;9.164;2022-09-03T09:35:39;2.40;;;2.20;;
751;SDS011;360;48.764;9.164;2022-09-03T09:38:07;3.10;;;2.90;;
751;SDS011;360;48.764;9.164;2022-09-03T09:40:35;2.20;;;2.00;;
751;SDS011;360;48.764;9.164;2022-09-03T09:43:06;3.30;;;2.20;;
751;SDS011;360;48.764;9.164;2022-09-03T09:45:35;2.57;;;2.37;;
751;SDS011;360;48.764;9.164;2022-09-03T09:48:06;2.40;;;2.20;;
751;SDS011;360;48.764;9.164;2022-09-03T09:50:34;2.67;;;2.13;;
751;SDS011;360;48.764;9.164;2022-09-03T09:53:04;1.90;;;1.80;;
751;SDS011;360;48.764;9.164;2022-09-03T09:55:47;3.33;;;3.00;;
751;SDS011;360;48.764;9.164;2022-09-03T09:58:14;2.80;;;2.47;;
751;SDS011;360;48.764;9.164;2022-09-03T10:00:41;2.57;;;2.37;;
751;SDS011;360;48.764;9.164;2022-09-03T10:03:20;2.80;;;2.60;;
751;SDS011;360;48.764;9.164;2022-09-03T10:05:54;2.30;;;2.10;;
751;SDS011;360;48.764;9.164;2022-09-03T10:08:25;2.77;;;2.57;;
751;SDS011;360;48.764;9.164;2022-09-03T10:10:52;2.50;;;2.30;;
751;SDS011;360;48.764;9.164;2022-09-03T10:13:20;2.90;;;2.70;;
751;SDS011;360;48.764;9.164;2022-09-03T10:15:49;2.93;;;2.63;;
751;SDS011;360;48.764;9.164;2022-09-03T10:18:18;2.60;;;2.40;;
751;SDS011;360;48.764;9.164;2022-09-03T10:20:53;2.70;;;2.50;;
751;SDS011;360;48.764;9.164;2022-09-03T10:23:26;2.97;;;2.10;;
751;SDS011;360;48.764;9.164;2022-09-03T10:25:58;2.43;;;2.23;;
751;SDS011;360;48.764;9.164;2022-09-03T10:28:31;2.77;;;2.43;;
751;SDS011;360;48.764;9.164;2022-09-03T10:31:05;2.40;;;2.20;;
751;SDS011;360;48.764;9.164;2022-09-03T10:33:38;4.80;;;2.27;;
751;SDS011;360;48.764;9.164;2022-09-03T10:36:09;2.77;;;2.37;;
751;SDS011;360;48.764;9.164;2022-09-03T10:38:38;3.53;;;3.00;;
751;SDS011;360;48.764;9.164;2022-09-03T10:41:11;3.07;;;2.63;;
751;SDS011;360;48.764;9.164;2022-09-03T10:43:46;2.20;;;2.00;;
751;SDS011;360;48.764;9.164;2022-09-03T10:46:21;2.40;;;2.20;;
751;SDS011;360;48.764;9.164;2022-09-03T10:49:03;2.60;;;1.90;;
751;SDS011;360;48.764;9.164;2022-09-03T10:51:35;2.40;;;2.20;;
751;SDS011;360;48.764;9.164;2022-09-03T10:54:08;2.97;;;2.77;;
751;SDS011;360;48.764;9.164;2022-09-03T10:56:39;2.93;;;2.37;;
751;SDS011;360;48.764;9.164;2022-09-03T10:59:15;2.73;;;2.43;;
751;SDS011;360;48.764;9.164;2022-09-03T11:01:47;3.70;;;2.70;;
751;SDS011;360;48.764;9.164;2022-09-03T11:04:21;3.33;;;3.03;;
751;SDS011;360;48.764;9.164;2022-09-03T11:06:53;2.63;;;2.43;;
751;SDS011;360;48.764;9.164;2022-09-03T11:09:22;2.53;;;2.33;;
751;SDS011;360;48.764;9.164;2022-09-03T11:11:53;3.00;;;2.70;;
751;SDS011;360;48.764;9.164;2022-09-03T11:14:26;3.10;;;2.70;;
751;SDS011;360;48.764;9.164;2022-09-03T11:16:59;3.13;;;2.83;;
751;SDS011;360;48.764;9.164;2022-09-03T11:19:30;3.13;;;2.53;;
751;SDS011;360;48.764;9.164;2022-09-03T11:21:59;2.77;;;2.53;;
751;SDS011;360;48.764;9.164;2022-09-03T11:24:28;2.70;;;2.50;;
751;SDS011;360;48.764;9.164;2022-09-03T11:27:00;2.80;;;2.53;;
751;SDS011;360;48.764;9.164;2022-09-03T11:29:29;3.30;;;2.60;;
751;SDS011;360;48.764;9.164;2022-09-03T11:32:01;3.00;;;2.80;;
751;SDS011;360;48.764;9.164;2022-09-03T11:34:32;2.60;;;2.40;;
751;SDS011;360;48.764;9.164;2022-09-03T11:37:15;2.80;;;2.10;;
751;SDS011;360;48.764;9.164;2022-09-03T11:39:51;2.90;;;2.70;;
751;SDS011;360;48.764;9.164;2022-09-03T11:42:23;2.73;;;2.53;;
751;SDS011;360;48.764;9.164;2022-09-03T11:44:52;3.33;;;3.03;;
751;SDS011;360;48.764;9.164;2022-09-03T11:47:36;3.40;;;2.50;;
751;SDS011;360;48.764;9.164;2022-09-03T11:50:04;5.07;;;3.53;;
751;SDS011;360;48.764;9.164;2022-09-03T11:52:33;18.70;;;7.10;;
751;SDS011;360;48.764;9.164;2022-09-03T11:55:06;3.50;;;2.60;;
751;SDS011;360;48.764;9.164;2022-09-03T11:57:38;3.17;;;2.80;;
751;SDS011;360;48.764;9.164;2022-09-03T12:00:07;2.93;;;2.63;;
751;SDS011;360;48.764;9.164;2022-09-03T12:02:36;2.70;;;2.50;;
751;SDS011;360;48.764;9.164;2022-09-03T12:05:14;2.33;;;2.13;;
751;SDS011;360;48.764;9.164;2022-09-03T12:10:42;2.80;;;2.30;;
751;SDS011;360;48.764;9.164;2022-09-03T12:13:15;4.53;;;3.00;;
751;SDS011;360;48.764;9.164;2022-09-03T12:15:48;2.60;;;2.40;;
751;SDS011;360;48.764;9.164;2022-09-03T12:18:20;2.00;;;1.90;;
751;SDS011;360;48.764;9.164;2022-09-03T12:20:59;3.10;;;2.90;;
751;SDS011;360;48.764;9.164;2022-09-03T12:23:27;2.90;;;2.40;;
751;SDS011;360;48.764;9.164;2022-09-03T12:25:56;2.47;;;2.27;;
751;SDS011;360;48.764;9.164;2022-09-03T12:28:25;2.73;;;2.50;;
751;SDS011;360;48.764;9.164;2022-09-03T12:31:04;2.90;;;2.70;;
751;SDS011;360;48.764;9.164;2022-09-03T12:33:32;4.47;;;2.20;;
751;SDS011;360;48.764;9.164;2022-09-03T12:36:00;1.53;;;1.40;;
751;SDS011;360;48.764;9.164;2022-09-03T12:38:27;2.20;;;1.83;;
751;SDS011;360;48.764;9.164;2022-09-03T12:40:57;3.30;;;1.77;;
751;SDS011;360;48.764;9.164;2022-09-03T12:43:26;1.70;;;1.57;;
751;SDS011;360;48.764;9.164;2022-09-03T12:45:54;2.07;;;1.50;;
751;SDS011;360;48.764;9.164;2022-09-03T12:48:21;1.83;;;1.60;;
751;SDS011;360;48.764;9.164;2022-09-03T12:50:59;2.07;;;1.87;;
751;SDS011;360;48.764;9.164;2022-09-03T12:53:27;5.40;;;2.27;;
751;SDS011;360;48.764;9.164;2022-09-03T12:55:54;3.70;;;1.53;;
751;SDS011;360;48.764;9.164;2022-09-03T12:58:24;1.60;;;1.13;;
751;SDS011;360;48.764;9.164;2022-09-03T13:00:54;5.50;;;1.73;;
751;SDS011;360;48.764;9.164;2022-09-03T13:03:24;1.70;;;1.17;;
751;SDS011;360;48.764;9.164;2022-09-03T13:05:55;1.53;;;0.97;;
751;SDS011;360;48.764;9.164;2022-09-03T13:08:23;1.83;;;1.60;;
751;SDS011;360;48.764;9.164;2022-09-03T13:10:52;1.30;;;1.17;;
751;SDS011;360;48.764;9.164;2022-09-03T13:13:22;1.93;;;1.73;;
751;SDS011;360;48.764;9.164;2022-09-03T13:16:05;1.50;;;1.13;;
751;SDS011;360;48.764;9.164;2022-09-03T13:18:41;3.00;;;1.63;;
751;SDS011;360;48.764;9.164;2022-09-03T13:21:12;5.13;;;1.53;;
751;SDS011;360;48.764;9.164;2022-09-03T13:23:49;1.67;;;1.33;;
751;SDS011;360;48.764;9.164;2022-09-03T13:26:22;2.27;;;1.47;;
751;SDS011;360;48.764;9.164;2022-09-03T13:29:11;5.83;;;1.47;;
751;SDS011;360;48.764;9.164;2022-09-03T13:31:43;1.33;;;1.20;;
751;SDS011;360;48.764;9.164;2022-09-03T13:34:14;3.53;;;1.60;;
751;SDS011;360;48.764;9.164;2022-09-03T13:36:48;1.77;;;1.40;;
751;SDS011;360;48.764;9.164;2022-09-03T13:39:19;1.57;;;1.30;;
751;SDS011;360;48.764;9.164;2022-09-03T13:41:48;1.70;;;1.40;;
751;SDS011;360;48.764;9.164;2022-09-03T13:44:19;1.13;;;1.00;;
751;SDS011;360;48.764;9.164;2022-09-03T13:46:51;1.93;;;1.10;;
751;SDS011;360;48.764;9.164;2022-09-03T13:49:25;1.93;;;1.13;;
751;SDS011;360;48.764;9.164;2022-09-03T13:52:12;1.47;;;0.90;;
751;SDS011;360;48.764;9.164;2022-09-03T13:54:44;1.70;;;1.13;;
751;SDS011;360;48.764;9.164;2022-09-03T13:57:16;1.30;;;1.03;;
751;SDS011;360;48.764;9.164;2022-09-03T13:59:46;1.47;;;1.20;;
751;SDS011;360;48.764;9.164;2022-09-03T14:02:19;1.70;;;1.10;;
751;SDS011;360;48.764;9.164;2022-09-03T14:04:53;2.33;;;1.47;;
751;SDS011;360;48.764;9.164;2022-09-03T14:07:23;2.00;;;1.37;;
751;SDS011;360;48.764;9.164;2022-09-03T14:09:53;3.27;;;1.67;;
751;SDS011;360;48.764;9.164;2022-09-03T14:12:24;1.83;;;1.47;;
751;SDS011;360;48.764;9.164;2022-09-03T14:14:56;1.40;;;1.10;;
751;SDS011;360;48.764;9.164;2022-09-03T14:17:29;1.57;;;1.30;;
751;SDS011;360;48.764;9.164;2022-09-03T14:19:59;1.10;;;0.90;;
751;SDS011;360;48.764;9.164;2022-09-03T14:22:30;1.60;;;1.13;;
751;SDS011;360;48.764;9.164;2022-09-03T14:25:00;1.97;;;1.07;;
751;SDS011;360;48.764;9.164;2022-09-03T14:27:29;1.90;;;1.27;;
751;SDS011;360;48.764;9.164;2022-09-03T14:29:57;1.30;;;1.20;;
751;SDS011;360;48.764;9.164;2022-09-03T14:32:30;2.10;;;1.57;;
751;SDS011;360;48.764;9.164;2022-09-03T14:37:49;1.40;;;1.30;;
751;SDS011;360;48.764;9.164;2022-09-03T14:40:21;1.00;;;0.90;;
751;SDS011;360;48.764;9.164;2022-09-03T14:42:55;1.27;;;1.17;;
751;SDS011;360;48.764;9.164;2022-09-03T14:45:43;0.80;;;0.63;;
751;SDS011;360;48.764;9.164;2022-09-03T14:48:27;0.80;;;0.70;;
751;SDS011;360;48.764;9.164;2022-09-03T14:51:01;2.50;;;1.00;;
751;SDS011;360;48.764;9.164;2022-09-03T14:53:35;1.47;;;1.07;;
751;SDS011;360;48.764;9.164;2022-09-03T14:56:11;1.30;;;1.03;;
751;SDS011;360;48.764;9.164;2022-09-03T14:58:57;1.30;;;0.83;;
751;SDS011;360;48.764;9.164;2022-09-03T15:01:27;1.00;;;0.70;;
751;SDS011;360;48.764;9.164;2022-09-03T15:04:06;1.60;;;1.07;;
751;SDS011;360;48.764;9.164;2022-09-03T15:06:38;1.07;;;0.97;;
751;SDS011;360;48.764;9.164;2022-09-03T15:09:21;1.83;;;0.90;;
751;SDS011;360;48.764;9.164;2022-09-03T15:11:54;3.00;;;1.37;;
751;SDS011;360;48.764;9.164;2022-09-03T15:14:25;0.97;;;0.83;;
751;SDS011;360;48.764;9.164;2022-09-03T15:16:58;1.30;;;0.97;;
751;SDS011;360;48.764;9.164;2022-09-03T15:19:42;1.50;;;1.20;;
751;SDS011;360;48.764;9.164;2022-09-03T15:22:31;1.30;;;1.10;;
751;SDS011;360;48.764;9.164;2022-09-03T15:25:10;1.20;;;1.10;;
751;SDS011;360;48.764;9.164;2022-09-03T15:27:55;1.97;;;1.43;;
751;SDS011;360;48.764;9.164;2022-09-03T15:30:30;1.33;;;1.10;;
751;SDS011;360;48.764;9.164;2022-09-03T15:33:02;1.73;;;1.33;;
751;SDS011;360;48.764;9.164;2022-09-03T15:35:37;2.00;;;1.30;;
751;SDS011;360;48.764;9.164;2022-09-03T15:38:07;3.70;;;1.20;;
751;SDS011;360;48.764;9.164;2022-09-03T15:40:35;1.10;;;1.00;;
751;SDS011;360;48.764;9.164;2022-09-03T15:43:07;1.15;;;1.05;;
751;SDS011;360;48.764;9.164;2022-09-03T15:45:36;1.13;;;1.02;;
751;SDS011;360;48.764;9.164;2022-09-03T15:48:16;1.23;;;1.13;;
751;SDS011;360;48.764;9.164;2022-09-03T15:50:51;1.48;;;1.35;;
751;SDS011;360;48.764;9.164;2022-09-03T15:53:24;1.83;;;1.52;;
751;SDS011;360;48.764;9.164;2022-09-03T15:56:01;1.97;;;0.97;;
751;SDS011;360;48.764;9.164;2022-09-03T15:58:30;1.47;;;1.30;;
751;SDS011;360;48.764;9.164;2022-09-03T16:01:00;1.57;;;1.13;;
751;SDS011;360;48.764;9.164;2022-09-03T16:03:33;1.23;;;1.07;;
751;SDS011;360;48.764;9.164;2022-09-03T16:06:06;1.60;;;1.30;;
751;SDS011;360;48.764;9.164;2022-09-03T16:08:45;1.20;;;1.10;;
751;SDS011;360;48.764;9.164;2022-09-03T16:11:16;1.33;;;1.23;;
751;SDS011;360;48.764;9.164;2022-09-03T16:13:54;1.30;;;1.20;;
751;SDS011;360;48.764;9.164;2022-09-03T16:16:24;3.37;;;2.60;;